Wabana, Canada
Current Conditions -  °F | °C
As of 5:00 PM on Wednesday 26 Nov 2014 (Local Time) from CYYT Reporting Station
Broken Clouds Broken Clouds  
Wind Chill: 33°   Ceiling: 19000
Heat Index: 41°   Visibility: 15mi
Dew Point: 34°   Wind: 15mph
Humidity: 76%   Direction: 270°W
Pressure: 30.02"   Gusts: 21mph
Location:  47.65°N, 52.93°W
Report Text: CYYT 262000Z 27013G18KT 15SM BKN190 05/01 A3002 RMK AC7 SLP172
Loading
Personal Weather Stations






























Interactive Weather Map New forecast layout! Learn more

10-Day Weather Forecast

Advertisements
Track Severe Weather on mobile